Adah, Pennsylvania
Current Conditions -  °F | °C
As of 6:53 AM on Friday 24 Oct 2014 (Local Time) from KMGW Reporting Station
Haze Haze  
Wind Chill: 42°   Ceiling: Unl
Heat Index: 42°   Visibility: 5mi
Dew Point: 38°   Wind: 3mph
Humidity: 85%   Direction: 200°SSW
Pressure: 30.12"   Gusts: NA
Location:  39.9°N, 79.92°W
Report Text: KMGW 241053Z AUTO 20003KT 5SM BR CLR 06/03 A3012 RMK AO2 SLP203 T00560033 TSNO
Loading
Personal Weather Stations






























Interactive Weather Map
Tropical Storm Tracking
New forecast layout! Learn more

10-Day Weather Forecast

Advertisements
Track Severe Weather on mobile